createdAt,value
2023-01-18T17:36:51.547Z,-1.13
2023-01-18T17:38:26.276Z,-1.14
2023-01-18T17:40:15.778Z,-1.16
2023-01-18T17:41:49.168Z,-1.16
2023-01-18T17:43:33.436Z,-1.18
2023-01-18T17:45:10.098Z,-1.20
2023-01-18T17:46:41.904Z,-1.21
2023-01-18T17:48:14.406Z,-1.22
2023-01-18T17:50:08.671Z,-0.03
2023-01-18T17:51:40.716Z,-0.02
2023-01-18T17:53:12.688Z,-0.03
2023-01-18T17:54:44.643Z,-0.03
2023-01-18T17:56:18.329Z,-0.03
2023-01-18T17:57:50.354Z,-0.04
2023-01-18T17:59:22.501Z,-0.02
2023-01-18T18:00:55.476Z,-0.03
2023-01-18T18:02:27.646Z,-0.02
2023-01-18T18:03:59.556Z,-0.01
2023-01-18T18:05:31.278Z,-0.01
2023-01-18T18:07:03.018Z,-0.01
2023-01-18T18:08:35.200Z,-0.02
2023-01-18T18:10:07.857Z,0.00
2023-01-18T18:11:39.873Z,-0.01
2023-01-18T18:13:11.875Z,-0.01
2023-01-18T18:14:43.599Z,-0.01
2023-01-18T18:16:18.846Z,-0.01
2023-01-18T18:17:51.412Z,-0.01
2023-01-18T18:19:23.259Z,-0.03
2023-01-18T18:21:06.402Z,-0.06
2023-01-18T18:22:38.533Z,-0.04
2023-01-18T18:24:10.554Z,-0.05
2023-01-18T18:25:46.136Z,-0.06
2023-01-18T18:27:19.095Z,-0.09
2023-01-18T18:28:50.925Z,-0.09
2023-01-18T18:30:22.633Z,-0.10
2023-01-18T18:31:54.395Z,-0.11
2023-01-18T18:33:27.411Z,-0.13
2023-01-18T18:34:59.385Z,-0.13
2023-01-18T18:36:31.714Z,-0.15
2023-01-18T18:38:03.766Z,-0.13
2023-01-18T18:39:35.807Z,-0.14
2023-01-18T18:41:08.973Z,-0.15
2023-01-18T18:42:41.949Z,-0.15
2023-01-18T18:44:16.403Z,-0.16
2023-01-18T18:45:48.476Z,-0.16
2023-01-18T18:47:20.171Z,-0.16
2023-01-18T18:48:55.086Z,-0.18
2023-01-18T18:50:27.198Z,-0.17
2023-01-18T18:52:00.341Z,-0.17
2023-01-18T18:53:38.550Z,-0.19
2023-01-18T18:55:12.004Z,-0.18
2023-01-18T18:56:44.181Z,-0.19
2023-01-18T18:58:15.925Z,-0.20
2023-01-18T18:59:48.147Z,-0.21
2023-01-18T19:01:20.083Z,-0.22
2023-01-18T19:02:57.402Z,-0.22
2023-01-18T19:04:29.225Z,-0.23
2023-01-18T19:06:01.931Z,-0.23
2023-01-18T19:07:34.905Z,-0.26
2023-01-18T19:09:06.961Z,-0.27
2023-01-18T19:10:39.403Z,-0.27
2023-01-18T19:12:11.905Z,-0.28
2023-01-18T19:13:45.211Z,-0.28
2023-01-18T19:15:17.597Z,-0.29
2023-01-18T19:16:49.679Z,-0.31
2023-01-18T19:18:21.687Z,-0.32
2023-01-18T19:19:53.699Z,-0.34
2023-01-18T19:21:25.854Z,-0.36
2023-01-18T19:22:58.462Z,-0.36
2023-01-18T19:24:35.011Z,-0.40
2023-01-18T19:26:07.041Z,-0.41
2023-01-18T19:27:38.807Z,-0.45
2023-01-18T19:29:11.982Z,-0.47
2023-01-18T19:30:44.939Z,-0.47
2023-01-18T19:32:17.075Z,-0.48
2023-01-18T19:33:49.555Z,-0.48
2023-01-18T19:35:21.870Z,-0.49
2023-01-18T19:36:53.638Z,-0.52
2023-01-18T19:38:25.753Z,-0.53
2023-01-18T19:39:57.854Z,-0.55
2023-01-18T19:41:32.235Z,-0.56
2023-01-18T19:43:04.306Z,-0.58
2023-01-18T19:44:36.335Z,-0.60
2023-01-18T19:46:10.328Z,-0.62
2023-01-18T19:47:42.111Z,-0.62
2023-01-18T19:49:13.845Z,-0.62
2023-01-18T19:50:45.944Z,-0.63
2023-01-18T19:52:18.141Z,-0.62
2023-01-18T19:53:52.867Z,-0.64
2023-01-18T19:55:25.276Z,-0.63
2023-01-18T19:56:57.002Z,-0.64
2023-01-18T19:58:33.592Z,-0.62
2023-01-18T20:00:07.539Z,-0.64
2023-01-18T20:01:45.435Z,-0.63
2023-01-18T20:03:18.881Z,-0.62
2023-01-18T20:04:51.527Z,-0.61
2023-01-18T20:06:23.847Z,-0.60
2023-01-18T20:07:56.055Z,-0.59
2023-01-18T20:09:38.514Z,-0.59
2023-01-18T20:11:15.178Z,-0.58
2023-01-18T20:12:50.229Z,-0.58
2023-01-18T20:14:26.209Z,-0.59
2023-01-18T20:16:04.848Z,-0.59
2023-01-18T20:17:37.983Z,-0.60
2023-01-18T20:19:12.477Z,-0.61
2023-01-18T20:20:44.367Z,-0.59
2023-01-18T20:22:16.073Z,-0.58
2023-01-18T20:23:48.610Z,-0.57
2023-01-18T20:25:20.368Z,-0.57
2023-01-18T20:26:52.400Z,-0.57
2023-01-18T20:28:24.130Z,-0.56
2023-01-18T20:29:56.073Z,-0.57
2023-01-18T20:31:29.597Z,-0.56
2023-01-18T20:33:01.962Z,-0.57
2023-01-18T20:34:36.227Z,-0.56
2023-01-18T20:36:08.415Z,-0.56
2023-01-18T20:37:40.149Z,-0.57
2023-01-18T20:39:12.680Z,-0.58
2023-01-18T20:40:44.570Z,-0.60
2023-01-18T20:42:18.110Z,-0.60
2023-01-18T20:43:50.164Z,-0.61
2023-01-18T20:45:22.912Z,-0.61
2023-01-18T20:46:57.535Z,-0.63
2023-01-18T20:48:30.432Z,-0.64
2023-01-18T20:50:03.470Z,-0.66
2023-01-18T20:51:35.283Z,-0.70
2023-01-18T20:53:08.334Z,-0.73
2023-01-18T20:54:40.417Z,-0.75
2023-01-18T20:56:27.920Z,-0.77
2023-01-18T20:58:00.736Z,-0.81
2023-01-18T20:59:32.823Z,-0.84
2023-01-18T21:01:15.761Z,-0.89
2023-01-18T21:02:47.885Z,-0.90
2023-01-18T21:04:22.507Z,-0.91
2023-01-18T21:05:55.771Z,-0.96
2023-01-18T21:07:29.721Z,-1.00
2023-01-18T21:09:02.356Z,-1.03
2023-01-18T21:10:38.867Z,-1.06
2023-01-18T21:12:10.549Z,-1.11
2023-01-18T21:13:42.579Z,-1.15
2023-01-18T21:15:14.634Z,-1.20
2023-01-18T21:16:47.071Z,-1.24
2023-01-18T21:18:18.819Z,-1.29
2023-01-18T21:19:53.497Z,-1.33
2023-01-18T21:21:31.956Z,-1.39
2023-01-18T21:23:03.862Z,-1.44
2023-01-18T21:24:36.161Z,-1.50
2023-01-18T21:26:10.429Z,-1.55
2023-01-18T21:27:45.012Z,-1.62
2023-01-18T21:29:16.942Z,-1.69
2023-01-18T21:30:56.021Z,-1.77
2023-01-18T21:32:27.972Z,-1.82
2023-01-18T21:33:59.767Z,-1.89
2023-01-18T21:35:31.824Z,-1.96
2023-01-18T21:37:03.540Z,-2.02
2023-01-18T21:38:35.774Z,-2.09
2023-01-18T21:40:08.654Z,-2.15
2023-01-18T21:41:59.048Z,-2.22
2023-01-18T21:43:49.223Z,-2.28
2023-01-18T21:45:39.565Z,-2.34
2023-01-18T21:47:11.894Z,-2.41
2023-01-18T21:48:49.641Z,-2.47
2023-01-18T21:50:39.782Z,-2.53
2023-01-18T21:52:30.078Z,-2.60
2023-01-18T21:54:16.701Z,-2.66
2023-01-18T21:55:48.693Z,-2.73
2023-01-18T21:57:20.469Z,-2.78
2023-01-18T21:58:56.122Z,-2.84
2023-01-18T22:00:27.837Z,-2.90
2023-01-18T22:01:59.802Z,-2.94
2023-01-18T22:03:31.652Z,-2.98
2023-01-18T22:05:04.179Z,-3.02
2023-01-18T22:06:36.598Z,-3.06
2023-01-18T22:08:09.624Z,-3.11
2023-01-18T22:09:42.738Z,-3.15
2023-01-18T22:11:14.560Z,-3.19
2023-01-18T22:12:46.331Z,-3.21
2023-01-18T22:14:18.248Z,-3.26
2023-01-18T22:15:49.979Z,-3.30
2023-01-18T22:17:22.193Z,-3.35
2023-01-18T22:18:53.966Z,-3.40
2023-01-18T22:20:25.716Z,-3.44
2023-01-18T22:21:57.522Z,-3.48
2023-01-18T22:23:29.481Z,-3.52
2023-01-18T22:25:02.438Z,-3.56
2023-01-18T22:26:36.323Z,-3.59
2023-01-18T22:28:08.177Z,-3.64
2023-01-18T22:29:40.023Z,-3.67
2023-01-18T22:31:11.805Z,-3.70
2023-01-18T22:32:43.549Z,-3.71
2023-01-18T22:34:20.436Z,-3.76
2023-01-18T22:35:57.711Z,-3.79
2023-01-18T22:37:29.725Z,-3.80
2023-01-18T22:39:01.843Z,-3.83
2023-01-18T22:40:33.566Z,-3.87
2023-01-18T22:42:05.601Z,-3.89
2023-01-18T22:43:38.667Z,-3.92
2023-01-18T22:45:10.915Z,-3.96
2023-01-18T22:46:42.924Z,-3.99
2023-01-18T22:48:14.663Z,-4.02
2023-01-18T22:49:46.765Z,-4.05
2023-01-18T22:51:22.860Z,-4.11
2023-01-18T22:52:54.894Z,-4.16
2023-01-18T22:54:28.398Z,-4.20
2023-01-18T22:56:15.373Z,-4.28
2023-01-18T22:57:47.115Z,-4.30
2023-01-18T22:59:18.868Z,-4.34
2023-01-18T23:00:50.778Z,-4.39
2023-01-18T23:02:22.574Z,-4.43
2023-01-18T23:03:59.570Z,-4.47
2023-01-18T23:05:31.327Z,-4.52
2023-01-18T23:07:03.054Z,-4.55
2023-01-18T23:08:44.095Z,-4.60
2023-01-18T23:10:16.344Z,-4.64
2023-01-18T23:11:48.134Z,-4.66
2023-01-18T23:13:19.868Z,-4.69
2023-01-18T23:15:10.043Z,-4.72
2023-01-18T23:17:01.308Z,-4.74
2023-01-18T23:18:33.015Z,-4.78
2023-01-18T23:20:07.435Z,-4.80
2023-01-18T23:21:39.206Z,-4.79
2023-01-18T23:23:10.923Z,-4.81
2023-01-18T23:24:42.683Z,-4.84
2023-01-18T23:26:14.723Z,-4.84
2023-01-18T23:27:46.523Z,-4.85
2023-01-18T23:29:18.574Z,-4.86
2023-01-18T23:30:50.385Z,-4.88
2023-01-18T23:32:28.132Z,-4.89
2023-01-18T23:33:59.870Z,-4.90
2023-01-18T23:35:31.600Z,-4.89
2023-01-18T23:37:03.364Z,-4.91
2023-01-18T23:38:53.785Z,-4.92
2023-01-18T23:40:44.080Z,-4.91
2023-01-18T23:42:34.468Z,-4.93
2023-01-18T23:44:25.122Z,-4.91
2023-01-18T23:46:15.262Z,-4.94
2023-01-18T23:48:05.906Z,-4.93
2023-01-18T23:49:56.275Z,-4.93
2023-01-18T23:51:46.762Z,-4.92
2023-01-18T23:53:37.155Z,-4.90
2023-01-18T23:55:09.448Z,-4.90
2023-01-18T23:56:41.499Z,-4.91
2023-01-18T23:58:13.218Z,-4.90
2023-01-18T23:59:44.962Z,-4.91
